sensor_id;sensor_type;location;lat;lon;timestamp;P1;durP1;ratioP1;P2;durP2;ratioP2
76196;SDS011;64974;53.144;17.962;2023-03-01T00:00:53;41.53;;;15.55;;
76196;SDS011;64974;53.144;17.962;2023-03-01T00:03:19;43.77;;;17.40;;
76196;SDS011;64974;53.144;17.962;2023-03-01T00:05:44;44.83;;;16.37;;
76196;SDS011;64974;53.144;17.962;2023-03-01T00:08:11;49.60;;;18.75;;
76196;SDS011;64974;53.144;17.962;2023-03-01T00:10:36;44.08;;;16.33;;
76196;SDS011;64974;53.144;17.962;2023-03-01T00:13:02;45.05;;;16.30;;
76196;SDS011;64974;53.144;17.962;2023-03-01T00:15:27;39.55;;;13.77;;
76196;SDS011;64974;53.144;17.962;2023-03-01T00:17:53;35.10;;;14.70;;
76196;SDS011;64974;53.144;17.962;2023-03-01T00:20:18;33.42;;;13.15;;
76196;SDS011;64974;53.144;17.962;2023-03-01T00:22:43;49.45;;;17.63;;
76196;SDS011;64974;53.144;17.962;2023-03-01T00:25:09;45.03;;;17.27;;
76196;SDS011;64974;53.144;17.962;2023-03-01T00:27:34;39.53;;;14.77;;
76196;SDS011;64974;53.144;17.962;2023-03-01T00:29:59;48.17;;;16.33;;
76196;SDS011;64974;53.144;17.962;2023-03-01T00:32:25;45.70;;;16.57;;
76196;SDS011;64974;53.144;17.962;2023-03-01T00:34:50;44.95;;;18.90;;
76196;SDS011;64974;53.144;17.962;2023-03-01T00:37:22;45.55;;;17.20;;
76196;SDS011;64974;53.144;17.962;2023-03-01T00:39:48;41.35;;;15.77;;
76196;SDS011;64974;53.144;17.962;2023-03-01T00:42:14;58.72;;;18.90;;
76196;SDS011;64974;53.144;17.962;2023-03-01T00:44:40;50.50;;;16.38;;
76196;SDS011;64974;53.144;17.962;2023-03-01T00:47:05;42.97;;;15.50;;
76196;SDS011;64974;53.144;17.962;2023-03-01T00:49:30;35.63;;;13.53;;
76196;SDS011;64974;53.144;17.962;2023-03-01T00:51:56;37.45;;;14.80;;
76196;SDS011;64974;53.144;17.962;2023-03-01T00:54:21;69.35;;;21.70;;
76196;SDS011;64974;53.144;17.962;2023-03-01T00:56:46;35.30;;;14.38;;
76196;SDS011;64974;53.144;17.962;2023-03-01T00:59:12;36.37;;;15.33;;
76196;SDS011;64974;53.144;17.962;2023-03-01T01:01:37;38.73;;;15.93;;
76196;SDS011;64974;53.144;17.962;2023-03-01T01:04:04;44.90;;;15.35;;
76196;SDS011;64974;53.144;17.962;2023-03-01T01:06:32;41.05;;;14.68;;
76196;SDS011;64974;53.144;17.962;2023-03-01T01:08:59;39.10;;;15.27;;
76196;SDS011;64974;53.144;17.962;2023-03-01T01:11:25;53.45;;;18.55;;
76196;SDS011;64974;53.144;17.962;2023-03-01T01:13:52;49.78;;;18.90;;
76196;SDS011;64974;53.144;17.962;2023-03-01T01:16:18;53.42;;;19.92;;
76196;SDS011;64974;53.144;17.962;2023-03-01T01:18:44;47.13;;;16.92;;
76196;SDS011;64974;53.144;17.962;2023-03-01T01:21:11;44.08;;;16.83;;
76196;SDS011;64974;53.144;17.962;2023-03-01T01:23:38;44.63;;;16.05;;
76196;SDS011;64974;53.144;17.962;2023-03-01T01:26:05;41.08;;;15.20;;
76196;SDS011;64974;53.144;17.962;2023-03-01T01:28:37;33.63;;;14.57;;
76196;SDS011;64974;53.144;17.962;2023-03-01T01:31:03;36.03;;;13.55;;
76196;SDS011;64974;53.144;17.962;2023-03-01T01:33:29;27.48;;;12.95;;
76196;SDS011;64974;53.144;17.962;2023-03-01T01:35:54;36.00;;;13.77;;
76196;SDS011;64974;53.144;17.962;2023-03-01T01:38:20;36.42;;;13.55;;
76196;SDS011;64974;53.144;17.962;2023-03-01T01:40:46;35.25;;;13.27;;
76196;SDS011;64974;53.144;17.962;2023-03-01T01:43:21;27.80;;;10.88;;
76196;SDS011;64974;53.144;17.962;2023-03-01T01:46:15;34.83;;;14.20;;
76196;SDS011;64974;53.144;17.962;2023-03-01T01:49:10;30.77;;;13.80;;
76196;SDS011;64974;53.144;17.962;2023-03-01T01:51:43;28.08;;;12.40;;
76196;SDS011;64974;53.144;17.962;2023-03-01T01:54:10;29.10;;;11.20;;
76196;SDS011;64974;53.144;17.962;2023-03-01T01:56:40;30.95;;;12.10;;
76196;SDS011;64974;53.144;17.962;2023-03-01T01:59:07;27.15;;;11.27;;
76196;SDS011;64974;53.144;17.962;2023-03-01T02:01:33;35.40;;;13.70;;
76196;SDS011;64974;53.144;17.962;2023-03-01T02:03:59;27.52;;;12.85;;
76196;SDS011;64974;53.144;17.962;2023-03-01T02:06:28;35.15;;;13.20;;
76196;SDS011;64974;53.144;17.962;2023-03-01T02:08:57;38.42;;;13.23;;
76196;SDS011;64974;53.144;17.962;2023-03-01T02:11:25;40.15;;;13.52;;
76196;SDS011;64974;53.144;17.962;2023-03-01T02:13:52;33.38;;;12.77;;
76196;SDS011;64974;53.144;17.962;2023-03-01T02:16:18;34.65;;;12.70;;
76196;SDS011;64974;53.144;17.962;2023-03-01T02:18:44;36.45;;;13.15;;
76196;SDS011;64974;53.144;17.962;2023-03-01T02:23:54;33.08;;;12.75;;
76196;SDS011;64974;53.144;17.962;2023-03-01T02:26:30;30.52;;;12.85;;
76196;SDS011;64974;53.144;17.962;2023-03-01T02:28:59;37.30;;;12.27;;
76196;SDS011;64974;53.144;17.962;2023-03-01T02:31:25;35.22;;;12.43;;
76196;SDS011;64974;53.144;17.962;2023-03-01T02:34:13;28.38;;;9.45;;
76196;SDS011;64974;53.144;17.962;2023-03-01T02:36:43;28.33;;;10.98;;
76196;SDS011;64974;53.144;17.962;2023-03-01T02:39:12;25.58;;;11.45;;
76196;SDS011;64974;53.144;17.962;2023-03-01T02:41:44;28.20;;;11.43;;
76196;SDS011;64974;53.144;17.962;2023-03-01T02:44:12;25.77;;;11.63;;
76196;SDS011;64974;53.144;17.962;2023-03-01T02:46:42;28.10;;;11.98;;
76196;SDS011;64974;53.144;17.962;2023-03-01T02:49:32;26.60;;;10.95;;
76196;SDS011;64974;53.144;17.962;2023-03-01T02:54:57;31.60;;;10.32;;
76196;SDS011;64974;53.144;17.962;2023-03-01T02:57:24;30.55;;;11.02;;
76196;SDS011;64974;53.144;17.962;2023-03-01T02:59:50;36.67;;;11.68;;
76196;SDS011;64974;53.144;17.962;2023-03-01T03:05:06;27.55;;;11.82;;
76196;SDS011;64974;53.144;17.962;2023-03-01T03:07:33;32.72;;;13.65;;
76196;SDS011;64974;53.144;17.962;2023-03-01T03:12:25;28.52;;;9.90;;
76196;SDS011;64974;53.144;17.962;2023-03-01T03:14:51;26.20;;;10.95;;
76196;SDS011;64974;53.144;17.962;2023-03-01T03:17:16;32.10;;;12.70;;
76196;SDS011;64974;53.144;17.962;2023-03-01T03:19:41;29.40;;;11.93;;
76196;SDS011;64974;53.144;17.962;2023-03-01T03:22:10;25.25;;;11.95;;
76196;SDS011;64974;53.144;17.962;2023-03-01T03:24:35;32.40;;;12.32;;
76196;SDS011;64974;53.144;17.962;2023-03-01T03:27:03;35.47;;;11.88;;
76196;SDS011;64974;53.144;17.962;2023-03-01T03:29:31;30.70;;;13.02;;
76196;SDS011;64974;53.144;17.962;2023-03-01T03:31:57;33.33;;;12.70;;
76196;SDS011;64974;53.144;17.962;2023-03-01T03:34:22;35.22;;;12.48;;
76196;SDS011;64974;53.144;17.962;2023-03-01T03:36:48;29.08;;;11.25;;
76196;SDS011;64974;53.144;17.962;2023-03-01T03:39:21;32.30;;;12.70;;
76196;SDS011;64974;53.144;17.962;2023-03-01T03:41:47;33.95;;;12.77;;
76196;SDS011;64974;53.144;17.962;2023-03-01T03:44:12;31.53;;;13.27;;
76196;SDS011;64974;53.144;17.962;2023-03-01T03:46:38;28.87;;;12.17;;
76196;SDS011;64974;53.144;17.962;2023-03-01T03:49:03;31.00;;;13.53;;
76196;SDS011;64974;53.144;17.962;2023-03-01T03:51:28;31.57;;;12.60;;
76196;SDS011;64974;53.144;17.962;2023-03-01T03:53:53;29.80;;;14.03;;
76196;SDS011;64974;53.144;17.962;2023-03-01T03:56:19;30.27;;;13.37;;
76196;SDS011;64974;53.144;17.962;2023-03-01T03:58:44;28.83;;;12.43;;
76196;SDS011;64974;53.144;17.962;2023-03-01T04:01:09;34.57;;;12.73;;
76196;SDS011;64974;53.144;17.962;2023-03-01T04:03:35;31.42;;;12.52;;
76196;SDS011;64974;53.144;17.962;2023-03-01T04:06:01;25.70;;;12.18;;
76196;SDS011;64974;53.144;17.962;2023-03-01T04:08:27;32.50;;;10.75;;
76196;SDS011;64974;53.144;17.962;2023-03-01T04:10:56;28.58;;;11.52;;
76196;SDS011;64974;53.144;17.962;2023-03-01T04:13:23;32.70;;;12.55;;
76196;SDS011;64974;53.144;17.962;2023-03-01T04:15:50;32.83;;;12.25;;
76196;SDS011;64974;53.144;17.962;2023-03-01T04:18:16;29.40;;;12.32;;
76196;SDS011;64974;53.144;17.962;2023-03-01T04:20:44;33.60;;;12.75;;
76196;SDS011;64974;53.144;17.962;2023-03-01T04:23:11;29.30;;;13.50;;
76196;SDS011;64974;53.144;17.962;2023-03-01T04:25:50;33.88;;;13.18;;
76196;SDS011;64974;53.144;17.962;2023-03-01T04:28:20;27.98;;;10.82;;
76196;SDS011;64974;53.144;17.962;2023-03-01T04:30:47;27.20;;;11.90;;
76196;SDS011;64974;53.144;17.962;2023-03-01T04:33:12;24.33;;;9.93;;
76196;SDS011;64974;53.144;17.962;2023-03-01T04:35:38;31.08;;;12.65;;
76196;SDS011;64974;53.144;17.962;2023-03-01T04:38:04;32.28;;;12.25;;
76196;SDS011;64974;53.144;17.962;2023-03-01T04:40:30;28.65;;;12.93;;
76196;SDS011;64974;53.144;17.962;2023-03-01T04:42:55;30.38;;;14.30;;
76196;SDS011;64974;53.144;17.962;2023-03-01T04:45:21;75.32;;;25.45;;
76196;SDS011;64974;53.144;17.962;2023-03-01T04:47:46;99.15;;;31.15;;
76196;SDS011;64974;53.144;17.962;2023-03-01T04:50:13;98.18;;;31.73;;
76196;SDS011;64974;53.144;17.962;2023-03-01T04:52:45;89.55;;;28.98;;
76196;SDS011;64974;53.144;17.962;2023-03-01T04:55:11;71.38;;;23.67;;
76196;SDS011;64974;53.144;17.962;2023-03-01T04:57:36;57.05;;;20.75;;
76196;SDS011;64974;53.144;17.962;2023-03-01T05:00:02;51.93;;;19.87;;
76196;SDS011;64974;53.144;17.962;2023-03-01T05:02:44;39.92;;;16.20;;
76196;SDS011;64974;53.144;17.962;2023-03-01T05:05:39;39.78;;;15.23;;
76196;SDS011;64974;53.144;17.962;2023-03-01T05:08:05;44.67;;;16.08;;
76196;SDS011;64974;53.144;17.962;2023-03-01T05:10:32;43.80;;;15.98;;
76196;SDS011;64974;53.144;17.962;2023-03-01T05:13:00;39.70;;;14.68;;
76196;SDS011;64974;53.144;17.962;2023-03-01T05:15:26;37.88;;;14.13;;
76196;SDS011;64974;53.144;17.962;2023-03-01T05:17:53;34.13;;;12.82;;
76196;SDS011;64974;53.144;17.962;2023-03-01T05:20:19;32.20;;;12.90;;
76196;SDS011;64974;53.144;17.962;2023-03-01T05:22:48;34.08;;;14.18;;
76196;SDS011;64974;53.144;17.962;2023-03-01T05:25:14;37.60;;;16.17;;
76196;SDS011;64974;53.144;17.962;2023-03-01T05:27:39;32.50;;;13.70;;
76196;SDS011;64974;53.144;17.962;2023-03-01T05:30:05;33.50;;;14.38;;
76196;SDS011;64974;53.144;17.962;2023-03-01T05:32:39;36.03;;;14.23;;
76196;SDS011;64974;53.144;17.962;2023-03-01T05:35:15;36.28;;;13.95;;
76196;SDS011;64974;53.144;17.962;2023-03-01T05:37:42;36.75;;;15.90;;
76196;SDS011;64974;53.144;17.962;2023-03-01T05:40:10;35.33;;;14.88;;
76196;SDS011;64974;53.144;17.962;2023-03-01T05:42:43;36.05;;;15.05;;
76196;SDS011;64974;53.144;17.962;2023-03-01T05:45:10;31.15;;;13.85;;
76196;SDS011;64974;53.144;17.962;2023-03-01T05:47:35;32.40;;;12.38;;
76196;SDS011;64974;53.144;17.962;2023-03-01T05:50:01;24.30;;;10.37;;
76196;SDS011;64974;53.144;17.962;2023-03-01T05:52:27;29.52;;;12.65;;
76196;SDS011;64974;53.144;17.962;2023-03-01T05:54:52;29.75;;;11.35;;
76196;SDS011;64974;53.144;17.962;2023-03-01T05:57:17;24.10;;;10.43;;
76196;SDS011;64974;53.144;17.962;2023-03-01T05:59:43;34.47;;;13.15;;
76196;SDS011;64974;53.144;17.962;2023-03-01T06:02:08;35.20;;;13.13;;
76196;SDS011;64974;53.144;17.962;2023-03-01T06:04:33;37.47;;;13.82;;
76196;SDS011;64974;53.144;17.962;2023-03-01T06:06:59;35.25;;;13.95;;
76196;SDS011;64974;53.144;17.962;2023-03-01T06:09:24;39.27;;;14.50;;
76196;SDS011;64974;53.144;17.962;2023-03-01T06:11:50;33.58;;;14.68;;
76196;SDS011;64974;53.144;17.962;2023-03-01T06:14:16;34.00;;;13.50;;
76196;SDS011;64974;53.144;17.962;2023-03-01T06:16:41;35.10;;;15.20;;
76196;SDS011;64974;53.144;17.962;2023-03-01T06:19:07;36.30;;;13.85;;
76196;SDS011;64974;53.144;17.962;2023-03-01T06:21:32;38.53;;;15.30;;
76196;SDS011;64974;53.144;17.962;2023-03-01T06:23:57;37.93;;;16.97;;
76196;SDS011;64974;53.144;17.962;2023-03-01T06:26:22;44.40;;;18.70;;
76196;SDS011;64974;53.144;17.962;2023-03-01T06:28:48;51.17;;;20.33;;
76196;SDS011;64974;53.144;17.962;2023-03-01T06:31:13;30.25;;;13.48;;
76196;SDS011;64974;53.144;17.962;2023-03-01T06:33:39;31.58;;;12.63;;
76196;SDS011;64974;53.144;17.962;2023-03-01T06:36:04;25.98;;;12.10;;
76196;SDS011;64974;53.144;17.962;2023-03-01T06:38:30;36.92;;;13.13;;
76196;SDS011;64974;53.144;17.962;2023-03-01T06:40:55;32.33;;;13.10;;
76196;SDS011;64974;53.144;17.962;2023-03-01T06:43:21;29.17;;;10.88;;
76196;SDS011;64974;53.144;17.962;2023-03-01T06:45:47;26.73;;;11.80;;
76196;SDS011;64974;53.144;17.962;2023-03-01T06:48:13;34.63;;;14.85;;
76196;SDS011;64974;53.144;17.962;2023-03-01T06:50:38;39.47;;;13.47;;
76196;SDS011;64974;53.144;17.962;2023-03-01T06:53:03;41.77;;;15.93;;
76196;SDS011;64974;53.144;17.962;2023-03-01T06:55:29;31.77;;;13.75;;
76196;SDS011;64974;53.144;17.962;2023-03-01T06:57:55;28.02;;;13.75;;
76196;SDS011;64974;53.144;17.962;2023-03-01T07:00:21;22.25;;;10.82;;
76196;SDS011;64974;53.144;17.962;2023-03-01T07:02:47;23.73;;;10.27;;
76196;SDS011;64974;53.144;17.962;2023-03-01T07:05:12;24.23;;;10.97;;
76196;SDS011;64974;53.144;17.962;2023-03-01T07:07:38;29.90;;;10.65;;
76196;SDS011;64974;53.144;17.962;2023-03-01T07:10:03;23.93;;;10.40;;
76196;SDS011;64974;53.144;17.962;2023-03-01T07:12:29;22.70;;;9.23;;
76196;SDS011;64974;53.144;17.962;2023-03-01T07:14:54;24.93;;;11.63;;
76196;SDS011;64974;53.144;17.962;2023-03-01T07:17:19;29.33;;;10.60;;
76196;SDS011;64974;53.144;17.962;2023-03-01T07:19:45;30.90;;;11.43;;
76196;SDS011;64974;53.144;17.962;2023-03-01T07:22:10;23.07;;;10.17;;
76196;SDS011;64974;53.144;17.962;2023-03-01T07:24:35;26.80;;;11.85;;
76196;SDS011;64974;53.144;17.962;2023-03-01T07:27:01;27.60;;;12.40;;
76196;SDS011;64974;53.144;17.962;2023-03-01T07:29:26;38.92;;;14.88;;
76196;SDS011;64974;53.144;17.962;2023-03-01T07:31:53;31.25;;;11.98;;
76196;SDS011;64974;53.144;17.962;2023-03-01T07:34:19;27.48;;;11.18;;
76196;SDS011;64974;53.144;17.962;2023-03-01T07:36:44;34.83;;;13.82;;
76196;SDS011;64974;53.144;17.962;2023-03-01T07:39:11;29.48;;;13.50;;
76196;SDS011;64974;53.144;17.962;2023-03-01T07:41:36;26.33;;;10.93;;
76196;SDS011;64974;53.144;17.962;2023-03-01T07:44:02;30.23;;;12.50;;
76196;SDS011;64974;53.144;17.962;2023-03-01T07:46:27;23.52;;;10.43;;
76196;SDS011;64974;53.144;17.962;2023-03-01T07:48:52;25.00;;;12.15;;
76196;SDS011;64974;53.144;17.962;2023-03-01T07:51:18;21.73;;;12.03;;
76196;SDS011;64974;53.144;17.962;2023-03-01T07:53:45;24.33;;;11.77;;
76196;SDS011;64974;53.144;17.962;2023-03-01T07:56:12;26.85;;;10.85;;
76196;SDS011;64974;53.144;17.962;2023-03-01T07:58:41;25.98;;;11.70;;
76196;SDS011;64974;53.144;17.962;2023-03-01T08:01:08;28.05;;;11.55;;
76196;SDS011;64974;53.144;17.962;2023-03-01T08:03:34;34.13;;;12.13;;
76196;SDS011;64974;53.144;17.962;2023-03-01T08:06:01;26.65;;;10.85;;
76196;SDS011;64974;53.144;17.962;2023-03-01T08:10:52;38.00;;;12.50;;
76196;SDS011;64974;53.144;17.962;2023-03-01T08:13:21;26.70;;;10.60;;
76196;SDS011;64974;53.144;17.962;2023-03-01T08:15:47;24.20;;;10.02;;
76196;SDS011;64974;53.144;17.962;2023-03-01T08:18:16;36.30;;;14.52;;
76196;SDS011;64974;53.144;17.962;2023-03-01T08:20:42;25.17;;;9.60;;
76196;SDS011;64974;53.144;17.962;2023-03-01T08:23:07;24.27;;;10.68;;
76196;SDS011;64974;53.144;17.962;2023-03-01T08:25:33;28.45;;;9.65;;
76196;SDS011;64974;53.144;17.962;2023-03-01T08:27:58;26.95;;;11.45;;
76196;SDS011;64974;53.144;17.962;2023-03-01T08:30:23;32.15;;;11.73;;
76196;SDS011;64974;53.144;17.962;2023-03-01T08:32:49;24.05;;;9.30;;
76196;SDS011;64974;53.144;17.962;2023-03-01T08:35:15;25.65;;;11.75;;
76196;SDS011;64974;53.144;17.962;2023-03-01T08:37:40;19.30;;;9.20;;
76196;SDS011;64974;53.144;17.962;2023-03-01T08:40:06;27.63;;;13.13;;
76196;SDS011;64974;53.144;17.962;2023-03-01T08:42:32;28.00;;;12.00;;
76196;SDS011;64974;53.144;17.962;2023-03-01T08:44:57;23.17;;;10.18;;
76196;SDS011;64974;53.144;17.962;2023-03-01T08:47:23;28.90;;;9.95;;
76196;SDS011;64974;53.144;17.962;2023-03-01T08:49:49;25.30;;;9.98;;
76196;SDS011;64974;53.144;17.962;2023-03-01T08:52:15;28.10;;;10.05;;
76196;SDS011;64974;53.144;17.962;2023-03-01T08:54:40;25.77;;;9.77;;
76196;SDS011;64974;53.144;17.962;2023-03-01T08:57:05;20.33;;;8.67;;
76196;SDS011;64974;53.144;17.962;2023-03-01T08:59:31;25.85;;;9.88;;
76196;SDS011;64974;53.144;17.962;2023-03-01T09:02:01;26.98;;;11.73;;
76196;SDS011;64974;53.144;17.962;2023-03-01T09:04:27;31.35;;;12.13;;
76196;SDS011;64974;53.144;17.962;2023-03-01T09:06:52;32.03;;;13.37;;
76196;SDS011;64974;53.144;17.962;2023-03-01T09:09:18;29.33;;;11.68;;
76196;SDS011;64974;53.144;17.962;2023-03-01T09:11:43;30.10;;;10.80;;
76196;SDS011;64974;53.144;17.962;2023-03-01T09:14:11;26.10;;;11.35;;
76196;SDS011;64974;53.144;17.962;2023-03-01T09:16:36;30.88;;;11.25;;
76196;SDS011;64974;53.144;17.962;2023-03-01T09:19:02;25.70;;;12.35;;
76196;SDS011;64974;53.144;17.962;2023-03-01T09:21:28;29.15;;;12.13;;
76196;SDS011;64974;53.144;17.962;2023-03-01T09:23:55;24.83;;;11.55;;
76196;SDS011;64974;53.144;17.962;2023-03-01T09:26:21;29.20;;;10.25;;
76196;SDS011;64974;53.144;17.962;2023-03-01T09:28:47;23.67;;;10.73;;
76196;SDS011;64974;53.144;17.962;2023-03-01T09:31:14;27.38;;;10.93;;
76196;SDS011;64974;53.144;17.962;2023-03-01T09:36:07;21.35;;;10.15;;
76196;SDS011;64974;53.144;17.962;2023-03-01T09:38:34;25.08;;;9.98;;
76196;SDS011;64974;53.144;17.962;2023-03-01T09:41:00;23.77;;;10.70;;
76196;SDS011;64974;53.144;17.962;2023-03-01T09:46:11;22.17;;;9.77;;
76196;SDS011;64974;53.144;17.962;2023-03-01T09:49:01;26.35;;;11.52;;
76196;SDS011;64974;53.144;17.962;2023-03-01T09:51:27;25.73;;;9.70;;
76196;SDS011;64974;53.144;17.962;2023-03-01T09:53:55;23.33;;;9.60;;
76196;SDS011;64974;53.144;17.962;2023-03-01T09:56:59;19.67;;;9.13;;
76196;SDS011;64974;53.144;17.962;2023-03-01T10:04:47;17.35;;;9.02;;
76196;SDS011;64974;53.144;17.962;2023-03-01T10:10:32;16.80;;;8.18;;
76196;SDS011;64974;53.144;17.962;2023-03-01T10:13:06;17.90;;;7.55;;
76196;SDS011;64974;53.144;17.962;2023-03-01T10:15:43;25.38;;;10.05;;
76196;SDS011;64974;53.144;17.962;2023-03-01T10:18:15;19.35;;;9.13;;
76196;SDS011;64974;53.144;17.962;2023-03-01T10:20:45;17.48;;;8.50;;
76196;SDS011;64974;53.144;17.962;2023-03-01T10:23:15;22.13;;;8.65;;
76196;SDS011;64974;53.144;17.962;2023-03-01T10:28:09;19.10;;;7.90;;
76196;SDS011;64974;53.144;17.962;2023-03-01T10:30:43;20.00;;;8.80;;
76196;SDS011;64974;53.144;17.962;2023-03-01T10:33:22;16.75;;;7.72;;
76196;SDS011;64974;53.144;17.962;2023-03-01T10:35:49;20.75;;;7.72;;
76196;SDS011;64974;53.144;17.962;2023-03-01T10:38:15;19.90;;;9.23;;
76196;SDS011;64974;53.144;17.962;2023-03-01T10:43:27;16.88;;;7.78;;
76196;SDS011;64974;53.144;17.962;2023-03-01T10:46:18;20.45;;;8.35;;
76196;SDS011;64974;53.144;17.962;2023-03-01T10:48:55;16.65;;;7.75;;
76196;SDS011;64974;53.144;17.962;2023-03-01T10:51:39;21.48;;;10.32;;
76196;SDS011;64974;53.144;17.962;2023-03-01T10:54:06;18.60;;;8.85;;
76196;SDS011;64974;53.144;17.962;2023-03-01T10:56:48;19.30;;;8.40;;
76196;SDS011;64974;53.144;17.962;2023-03-01T10:59:29;23.10;;;9.73;;
76196;SDS011;64974;53.144;17.962;2023-03-01T11:02:15;24.63;;;8.85;;
76196;SDS011;64974;53.144;17.962;2023-03-01T11:05:13;21.10;;;9.63;;
76196;SDS011;64974;53.144;17.962;2023-03-01T11:07:56;27.48;;;11.15;;
76196;SDS011;64974;53.144;17.962;2023-03-01T11:10:27;22.58;;;10.48;;
76196;SDS011;64974;53.144;17.962;2023-03-01T11:13:07;24.25;;;10.98;;
76196;SDS011;64974;53.144;17.962;2023-03-01T11:15:32;17.38;;;8.48;;
76196;SDS011;64974;53.144;17.962;2023-03-01T11:17:58;23.88;;;10.10;;
76196;SDS011;64974;53.144;17.962;2023-03-01T11:20:24;21.83;;;9.85;;
76196;SDS011;64974;53.144;17.962;2023-03-01T11:22:55;17.95;;;7.93;;
76196;SDS011;64974;53.144;17.962;2023-03-01T11:25:24;22.00;;;8.75;;
76196;SDS011;64974;53.144;17.962;2023-03-01T11:27:51;21.58;;;8.95;;
76196;SDS011;64974;53.144;17.962;2023-03-01T11:32:50;24.30;;;11.40;;
76196;SDS011;64974;53.144;17.962;2023-03-01T11:35:22;16.27;;;8.80;;
76196;SDS011;64974;53.144;17.962;2023-03-01T11:38:02;17.92;;;5.97;;
76196;SDS011;64974;53.144;17.962;2023-03-01T11:41:06;9.98;;;5.07;;
76196;SDS011;64974;53.144;17.962;2023-03-01T11:46:40;10.18;;;4.03;;
76196;SDS011;64974;53.144;17.962;2023-03-01T11:55:07;15.50;;;6.00;;
76196;SDS011;64974;53.144;17.962;2023-03-01T12:00:36;12.80;;;5.28;;
76196;SDS011;64974;53.144;17.962;2023-03-01T12:09:17;12.50;;;5.88;;
76196;SDS011;64974;53.144;17.962;2023-03-01T12:11:55;15.68;;;6.13;;
76196;SDS011;64974;53.144;17.962;2023-03-01T12:14:30;14.02;;;5.60;;
76196;SDS011;64974;53.144;17.962;2023-03-01T12:28:24;13.50;;;6.45;;
76196;SDS011;64974;53.144;17.962;2023-03-01T12:36:43;17.08;;;7.45;;
76196;SDS011;64974;53.144;17.962;2023-03-01T12:44:59;17.25;;;7.15;;
76196;SDS011;64974;53.144;17.962;2023-03-01T12:55:49;39.75;;;14.80;;
76196;SDS011;64974;53.144;17.962;2023-03-01T12:58:30;13.13;;;6.38;;
76196;SDS011;64974;53.144;17.962;2023-03-01T13:09:32;17.20;;;7.32;;
76196;SDS011;64974;53.144;17.962;2023-03-01T13:17:49;11.45;;;5.25;;
76196;SDS011;64974;53.144;17.962;2023-03-01T13:20:15;13.25;;;6.07;;
76196;SDS011;64974;53.144;17.962;2023-03-01T13:22:42;14.38;;;6.05;;
76196;SDS011;64974;53.144;17.962;2023-03-01T13:25:14;10.68;;;5.57;;
76196;SDS011;64974;53.144;17.962;2023-03-01T13:27:41;12.57;;;6.47;;
76196;SDS011;64974;53.144;17.962;2023-03-01T13:30:37;13.77;;;6.40;;
76196;SDS011;64974;53.144;17.962;2023-03-01T13:35:48;10.02;;;6.07;;
76196;SDS011;64974;53.144;17.962;2023-03-01T13:41:13;13.27;;;6.75;;
76196;SDS011;64974;53.144;17.962;2023-03-01T13:43:40;11.20;;;6.82;;
76196;SDS011;64974;53.144;17.962;2023-03-01T13:46:23;11.88;;;5.70;;
76196;SDS011;64974;53.144;17.962;2023-03-01T13:48:53;10.77;;;5.68;;
76196;SDS011;64974;53.144;17.962;2023-03-01T13:51:24;12.05;;;5.95;;
76196;SDS011;64974;53.144;17.962;2023-03-01T13:53:51;13.07;;;6.55;;
76196;SDS011;64974;53.144;17.962;2023-03-01T13:56:24;13.45;;;6.45;;
76196;SDS011;64974;53.144;17.962;2023-03-01T14:03:49;15.32;;;6.70;;
76196;SDS011;64974;53.144;17.962;2023-03-01T14:06:16;15.48;;;6.88;;
76196;SDS011;64974;53.144;17.962;2023-03-01T14:08:49;14.80;;;6.63;;
76196;SDS011;64974;53.144;17.962;2023-03-01T14:19:47;16.35;;;7.88;;
76196;SDS011;64974;53.144;17.962;2023-03-01T14:22:23;13.73;;;7.13;;
76196;SDS011;64974;53.144;17.962;2023-03-01T14:25:16;12.48;;;6.03;;
76196;SDS011;64974;53.144;17.962;2023-03-01T14:27:42;15.02;;;7.28;;
76196;SDS011;64974;53.144;17.962;2023-03-01T14:32:37;13.13;;;6.53;;
76196;SDS011;64974;53.144;17.962;2023-03-01T14:35:02;12.07;;;6.45;;
76196;SDS011;64974;53.144;17.962;2023-03-01T14:37:29;17.88;;;8.52;;
76196;SDS011;64974;53.144;17.962;2023-03-01T14:39:57;15.25;;;7.47;;
76196;SDS011;64974;53.144;17.962;2023-03-01T14:42:24;11.88;;;7.07;;
76196;SDS011;64974;53.144;17.962;2023-03-01T14:44:52;16.13;;;8.23;;
76196;SDS011;64974;53.144;17.962;2023-03-01T14:47:29;13.50;;;6.30;;
76196;SDS011;64974;53.144;17.962;2023-03-01T14:49:57;12.63;;;6.70;;
76196;SDS011;64974;53.144;17.962;2023-03-01T14:52:37;13.15;;;6.63;;
76196;SDS011;64974;53.144;17.962;2023-03-01T14:55:15;13.50;;;6.95;;
76196;SDS011;64974;53.144;17.962;2023-03-01T14:57:46;13.38;;;7.18;;
76196;SDS011;64974;53.144;17.962;2023-03-01T15:00:16;13.00;;;6.18;;
76196;SDS011;64974;53.144;17.962;2023-03-01T15:02:44;13.93;;;5.93;;
76196;SDS011;64974;53.144;17.962;2023-03-01T15:05:13;14.57;;;7.63;;
76196;SDS011;64974;53.144;17.962;2023-03-01T15:07:40;14.75;;;5.75;;
76196;SDS011;64974;53.144;17.962;2023-03-01T15:10:11;14.40;;;7.82;;
76196;SDS011;64974;53.144;17.962;2023-03-01T15:12:41;17.75;;;8.20;;
76196;SDS011;64974;53.144;17.962;2023-03-01T15:15:21;17.25;;;7.00;;
76196;SDS011;64974;53.144;17.962;2023-03-01T15:17:55;13.80;;;6.68;;
76196;SDS011;64974;53.144;17.962;2023-03-01T15:20:22;14.38;;;7.05;;
76196;SDS011;64974;53.144;17.962;2023-03-01T15:22:52;12.93;;;6.55;;
76196;SDS011;64974;53.144;17.962;2023-03-01T15:25:19;13.68;;;6.38;;
76196;SDS011;64974;53.144;17.962;2023-03-01T15:27:46;23.35;;;9.55;;
76196;SDS011;64974;53.144;17.962;2023-03-01T15:30:17;22.27;;;9.10;;
76196;SDS011;64974;53.144;17.962;2023-03-01T15:32:45;15.82;;;6.63;;
76196;SDS011;64974;53.144;17.962;2023-03-01T15:40:54;20.65;;;9.15;;
76196;SDS011;64974;53.144;17.962;2023-03-01T15:46:05;19.15;;;8.02;;
76196;SDS011;64974;53.144;17.962;2023-03-01T15:48:30;19.40;;;8.88;;
76196;SDS011;64974;53.144;17.962;2023-03-01T15:50:58;19.55;;;9.63;;
76196;SDS011;64974;53.144;17.962;2023-03-01T15:53:24;19.75;;;9.98;;
76196;SDS011;64974;53.144;17.962;2023-03-01T15:55:51;24.13;;;12.18;;
76196;SDS011;64974;53.144;17.962;2023-03-01T15:58:18;20.95;;;11.20;;
76196;SDS011;64974;53.144;17.962;2023-03-01T16:00:45;25.42;;;11.30;;
76196;SDS011;64974;53.144;17.962;2023-03-01T16:03:13;28.73;;;12.85;;
76196;SDS011;64974;53.144;17.962;2023-03-01T16:05:39;27.73;;;12.18;;
76196;SDS011;64974;53.144;17.962;2023-03-01T16:08:05;48.83;;;19.07;;
76196;SDS011;64974;53.144;17.962;2023-03-01T16:12:56;28.90;;;14.00;;
76196;SDS011;64974;53.144;17.962;2023-03-01T16:15:29;34.08;;;16.15;;
76196;SDS011;64974;53.144;17.962;2023-03-01T16:17:56;46.45;;;20.27;;
76196;SDS011;64974;53.144;17.962;2023-03-01T16:20:23;37.70;;;16.85;;
76196;SDS011;64974;53.144;17.962;2023-03-01T16:22:49;107.82;;;40.30;;
76196;SDS011;64974;53.144;17.962;2023-03-01T16:25:16;84.05;;;37.53;;
76196;SDS011;64974;53.144;17.962;2023-03-01T16:27:43;91.85;;;32.88;;
76196;SDS011;64974;53.144;17.962;2023-03-01T16:30:10;158.43;;;52.08;;
76196;SDS011;64974;53.144;17.962;2023-03-01T16:32:39;99.65;;;39.67;;